createdAt,value
2022-08-14T00:00:28.049Z,1010.21
2022-08-14T00:01:28.072Z,1010.18
2022-08-14T00:02:28.488Z,1010.18
2022-08-14T00:03:29.504Z,1010.17
2022-08-14T00:04:35.941Z,1010.18
2022-08-14T00:05:29.015Z,1010.17
2022-08-14T00:06:28.940Z,1010.20
2022-08-14T00:07:27.964Z,1010.17
2022-08-14T00:08:42.085Z,1010.17
2022-08-14T00:09:28.936Z,1010.18
2022-08-14T00:10:51.976Z,1010.19
2022-08-14T00:11:31.917Z,1010.17
2022-08-14T00:12:33.518Z,1010.18
2022-08-14T00:13:28.894Z,1010.18
2022-08-14T00:14:27.885Z,1010.20
2022-08-14T00:15:29.629Z,1010.19
2022-08-14T00:16:40.328Z,1010.16
2022-08-14T00:17:28.856Z,1010.17
2022-08-14T00:18:30.966Z,1010.17
2022-08-14T00:19:28.836Z,1010.14
2022-08-14T00:20:31.038Z,1010.16
2022-08-14T00:21:31.165Z,1010.13
2022-08-14T00:22:56.054Z,1010.15
2022-08-14T00:23:28.808Z,1010.15
2022-08-14T00:24:29.130Z,1010.15
2022-08-14T00:25:41.586Z,1010.15
2022-08-14T00:26:28.764Z,1010.16
2022-08-14T00:27:27.766Z,1010.13
2022-08-14T00:28:29.047Z,1010.17
2022-08-14T00:29:27.768Z,1010.10
2022-08-14T00:30:27.737Z,1010.08
2022-08-14T00:31:44.434Z,1010.08
2022-08-14T00:32:50.243Z,1010.11
2022-08-14T00:33:52.067Z,1010.10
2022-08-14T00:34:37.895Z,1010.09
2022-08-14T00:36:36.539Z,1010.10
2022-08-14T00:36:37.588Z,1010.10
2022-08-14T00:37:28.643Z,1010.13
2022-08-14T00:38:27.622Z,1010.08
2022-08-14T00:39:27.691Z,1010.10
2022-08-14T00:40:33.590Z,1010.09
2022-08-14T00:41:28.606Z,1010.07
2022-08-14T00:42:56.054Z,1010.07
2022-08-14T00:43:31.691Z,1010.08
2022-08-14T00:44:32.551Z,1010.06
2022-08-14T00:45:30.446Z,1010.04
2022-08-14T00:46:32.885Z,1010.01
2022-08-14T00:47:28.571Z,1009.98
2022-08-14T00:48:34.622Z,1010.02
2022-08-14T00:49:28.534Z,1009.98
2022-08-14T00:50:27.516Z,1010.00
2022-08-14T00:51:37.648Z,1009.96
2022-08-14T00:52:28.474Z,1010.00
2022-08-14T00:53:27.474Z,1010.01
2022-08-14T00:54:27.468Z,1009.98
2022-08-14T00:55:27.477Z,1009.99
2022-08-14T00:56:31.350Z,1009.96
2022-08-14T00:57:27.434Z,1009.99
2022-08-14T00:58:27.940Z,1009.98
2022-08-14T00:59:29.032Z,1009.94
2022-08-14T01:00:37.409Z,1009.96
2022-08-14T01:01:28.492Z,1009.93
2022-08-14T01:02:28.288Z,1009.93
2022-08-14T01:03:27.362Z,1009.90
2022-08-14T01:04:37.783Z,1009.93
2022-08-14T01:05:41.628Z,1009.92
2022-08-14T01:06:30.302Z,1009.91
2022-08-14T01:07:28.324Z,1009.91
2022-08-14T01:08:51.355Z,1009.88
2022-08-14T01:09:28.307Z,1009.89
2022-08-14T01:10:27.298Z,1009.88
2022-08-14T01:11:35.649Z,1009.86
2022-08-14T01:12:29.889Z,1009.89
2022-08-14T01:13:27.253Z,1009.90
2022-08-14T01:14:28.487Z,1009.90
2022-08-14T01:15:31.625Z,1009.86
2022-08-14T01:16:30.784Z,1009.86
2022-08-14T01:17:27.225Z,1009.86
2022-08-14T01:18:27.265Z,1009.85
2022-08-14T01:19:27.231Z,1009.83
2022-08-14T01:20:29.847Z,1009.82
2022-08-14T01:21:27.328Z,1009.81
2022-08-14T01:22:27.188Z,1009.84
2022-08-14T01:23:27.167Z,1009.80
2022-08-14T01:24:34.131Z,1009.84
2022-08-14T01:25:28.136Z,1009.83
2022-08-14T01:26:35.123Z,1009.81
2022-08-14T01:27:28.113Z,1009.79
2022-08-14T01:28:47.211Z,1009.79
2022-08-14T01:29:58.561Z,1009.78
2022-08-14T01:30:28.090Z,1009.80
2022-08-14T01:31:27.092Z,1009.76
2022-08-14T01:32:27.070Z,1009.78
2022-08-14T01:33:27.056Z,1009.77
2022-08-14T01:35:21.298Z,1009.77
2022-08-14T01:36:05.562Z,1009.76
2022-08-14T01:36:28.105Z,1009.77
2022-08-14T01:37:26.996Z,1009.77
2022-08-14T01:38:26.995Z,1009.76
2022-08-14T01:39:27.081Z,1009.79
2022-08-14T01:40:37.227Z,1009.79
2022-08-14T01:41:29.998Z,1009.78
2022-08-14T01:42:31.649Z,1009.80
2022-08-14T01:43:27.947Z,1009.76
2022-08-14T01:44:33.234Z,1009.79
2022-08-14T01:45:27.939Z,1009.79
2022-08-14T01:46:33.386Z,1009.79
2022-08-14T01:47:37.098Z,1009.81
2022-08-14T01:48:27.875Z,1009.79
2022-08-14T01:49:26.877Z,1009.77
2022-08-14T01:50:27.879Z,1009.81
2022-08-14T01:51:26.907Z,1009.78
2022-08-14T01:52:34.178Z,1009.80
2022-08-14T01:53:33.497Z,1009.81
2022-08-14T01:54:38.005Z,1009.83
2022-08-14T01:55:27.805Z,1009.79
2022-08-14T01:56:26.795Z,1009.82
2022-08-14T01:57:26.795Z,1009.79
2022-08-14T01:58:28.897Z,1009.79
2022-08-14T01:59:26.835Z,1009.76
2022-08-14T02:00:27.964Z,1009.75
2022-08-14T02:01:26.831Z,1009.77
2022-08-14T02:02:26.725Z,1009.76
2022-08-14T02:03:30.021Z,1009.75
2022-08-14T02:04:54.634Z,1009.76
2022-08-14T02:05:27.703Z,1009.73
2022-08-14T02:06:33.334Z,1009.73
2022-08-14T02:07:44.948Z,1009.72
2022-08-14T02:08:35.328Z,1009.71
2022-08-14T02:09:27.677Z,1009.71
2022-08-14T02:10:27.221Z,1009.73
2022-08-14T02:11:26.647Z,1009.73
2022-08-14T02:12:29.341Z,1009.70
2022-08-14T02:13:26.624Z,1009.74
2022-08-14T02:14:31.933Z,1009.73
2022-08-14T02:15:27.593Z,1009.74
2022-08-14T02:16:26.654Z,1009.68
2022-08-14T02:17:26.601Z,1009.71
2022-08-14T02:18:26.591Z,1009.70
2022-08-14T02:19:27.598Z,1009.69
2022-08-14T02:20:26.533Z,1009.66
2022-08-14T02:21:26.541Z,1009.68
2022-08-14T02:22:29.109Z,1009.67
2022-08-14T02:23:32.108Z,1009.67
2022-08-14T02:24:39.670Z,1009.64
2022-08-14T02:25:29.887Z,1009.64
2022-08-14T02:26:29.551Z,1009.65
2022-08-14T02:28:25.798Z,1009.62
2022-08-14T02:28:57.617Z,1009.60
2022-08-14T02:29:27.457Z,1009.59
2022-08-14T02:30:30.760Z,1009.59
2022-08-14T02:31:28.663Z,1009.60
2022-08-14T02:32:30.546Z,1009.59
2022-08-14T02:33:29.443Z,1009.57
2022-08-14T02:34:27.695Z,1009.62
2022-08-14T02:35:26.518Z,1009.61
2022-08-14T02:37:04.410Z,1009.59
2022-08-14T02:37:46.991Z,1009.58
2022-08-14T02:38:30.204Z,1009.55
2022-08-14T02:39:27.753Z,1009.53
2022-08-14T02:40:32.343Z,1009.53
2022-08-14T02:41:28.799Z,1009.54
2022-08-14T02:42:37.448Z,1009.50
2022-08-14T02:43:37.169Z,1009.52
2022-08-14T02:44:29.538Z,1009.53
2022-08-14T02:45:33.340Z,1009.48
2022-08-14T02:46:32.351Z,1009.48
2022-08-14T02:47:27.280Z,1009.48
2022-08-14T02:49:02.920Z,1009.50
2022-08-14T02:49:27.239Z,1009.48
2022-08-14T02:50:27.387Z,1009.43
2022-08-14T02:51:26.229Z,1009.53
2022-08-14T02:52:56.715Z,1009.44
2022-08-14T02:53:27.209Z,1009.47
2022-08-14T02:54:26.189Z,1009.53
2022-08-14T02:55:26.167Z,1009.50
2022-08-14T02:56:30.021Z,1009.48
2022-08-14T02:57:40.312Z,1009.42
2022-08-14T02:58:30.688Z,1009.40
2022-08-14T02:59:26.145Z,1009.38
2022-08-14T03:00:26.123Z,1009.39
2022-08-14T03:01:31.186Z,1009.38
2022-08-14T03:02:49.500Z,1009.37
2022-08-14T03:03:27.075Z,1009.36
2022-08-14T03:04:26.099Z,1009.35
2022-08-14T03:05:26.078Z,1009.32
2022-08-14T03:06:35.042Z,1009.32
2022-08-14T03:07:27.079Z,1009.33
2022-08-14T03:08:26.028Z,1009.29
2022-08-14T03:09:41.634Z,1009.32
2022-08-14T03:10:32.320Z,1009.32
2022-08-14T03:11:27.043Z,1009.34
2022-08-14T03:12:32.098Z,1009.31
2022-08-14T03:13:26.982Z,1009.33
2022-08-14T03:14:27.661Z,1009.34
2022-08-14T03:15:25.968Z,1009.36
2022-08-14T03:16:26.831Z,1009.34
2022-08-14T03:17:25.960Z,1009.34
2022-08-14T03:18:30.919Z,1009.32
2022-08-14T03:19:26.915Z,1009.33
2022-08-14T03:20:25.997Z,1009.32
2022-08-14T03:21:25.909Z,1009.32
2022-08-14T03:22:27.790Z,1009.32
2022-08-14T03:23:25.890Z,1009.33
2022-08-14T03:24:25.875Z,1009.33
2022-08-14T03:25:25.845Z,1009.34
2022-08-14T03:26:30.189Z,1009.31
2022-08-14T03:27:26.839Z,1009.32
2022-08-14T03:28:29.629Z,1009.33
2022-08-14T03:29:26.813Z,1009.31
2022-08-14T03:30:39.159Z,1009.33
2022-08-14T03:31:27.868Z,1009.35
2022-08-14T03:32:30.566Z,1009.34
2022-08-14T03:33:26.769Z,1009.39
2022-08-14T03:34:52.980Z,1009.42
2022-08-14T03:35:30.996Z,1009.41
2022-08-14T03:37:38.143Z,1009.42
2022-08-14T03:37:38.762Z,1009.37
2022-08-14T03:39:15.029Z,1009.36
2022-08-14T03:39:27.560Z,1009.37
2022-08-14T03:40:25.701Z,1009.36
2022-08-14T03:41:25.691Z,1009.34
2022-08-14T03:42:31.144Z,1009.37
2022-08-14T03:43:28.400Z,1009.36
2022-08-14T03:45:19.298Z,1009.36
2022-08-14T03:45:34.517Z,1009.35
2022-08-14T03:46:39.012Z,1009.34
2022-08-14T03:47:46.017Z,1009.30
2022-08-14T03:48:30.335Z,1009.28
2022-08-14T03:49:28.789Z,1009.26
2022-08-14T03:50:30.876Z,1009.23
2022-08-14T03:51:26.581Z,1009.23
2022-08-14T03:52:38.510Z,1009.24
2022-08-14T03:53:26.559Z,1009.20
2022-08-14T03:54:25.585Z,1009.18
2022-08-14T03:55:25.546Z,1009.15
2022-08-14T03:56:25.529Z,1009.14
2022-08-14T03:57:25.532Z,1009.11
2022-08-14T03:58:36.568Z,1009.12
2022-08-14T03:59:28.553Z,1009.13
2022-08-14T04:00:40.526Z,1009.12
2022-08-14T04:01:29.161Z,1009.11
2022-08-14T04:02:32.530Z,1009.09
2022-08-14T04:03:26.444Z,1009.10
2022-08-14T04:04:25.499Z,1009.10
2022-08-14T04:05:25.440Z,1009.07
2022-08-14T04:06:28.299Z,1009.04
2022-08-14T04:07:26.411Z,1009.04
2022-08-14T04:08:30.792Z,1009.03
2022-08-14T04:09:26.647Z,1008.99
2022-08-14T04:10:31.683Z,1009.02
2022-08-14T04:11:26.369Z,1009.00
2022-08-14T04:12:26.576Z,1009.04
2022-08-14T04:13:27.999Z,1009.01
2022-08-14T04:14:26.328Z,1009.03
2022-08-14T04:15:25.381Z,1009.02
2022-08-14T04:16:25.328Z,1009.03
2022-08-14T04:17:26.289Z,1009.03
2022-08-14T04:18:25.310Z,1009.03
2022-08-14T04:19:28.263Z,1009.06
2022-08-14T04:20:26.288Z,1009.05
2022-08-14T04:21:25.279Z,1009.08
2022-08-14T04:22:25.246Z,1009.06
2022-08-14T04:23:29.709Z,1009.08
2022-08-14T04:24:26.249Z,1009.05
2022-08-14T04:25:25.245Z,1009.05
2022-08-14T04:26:27.115Z,1009.06
2022-08-14T04:27:25.200Z,1009.04
2022-08-14T04:29:07.301Z,1008.99
2022-08-14T04:29:26.184Z,1009.05
2022-08-14T04:30:30.991Z,1009.03
2022-08-14T04:32:57.641Z,1009.03
2022-08-14T04:32:59.790Z,1009.06
2022-08-14T04:33:26.694Z,1009.03
2022-08-14T04:34:28.111Z,1009.09
2022-08-14T04:35:25.141Z,1009.07
2022-08-14T04:36:26.105Z,1009.10
2022-08-14T04:37:25.529Z,1009.11
2022-08-14T04:38:36.440Z,1009.13
2022-08-14T04:39:26.163Z,1009.11
2022-08-14T04:40:25.058Z,1009.07
2022-08-14T04:41:25.047Z,1009.09
2022-08-14T04:42:26.070Z,1009.08
2022-08-14T04:43:25.020Z,1009.09
2022-08-14T04:44:26.679Z,1009.09
2022-08-14T04:45:26.008Z,1009.07
2022-08-14T04:46:56.956Z,1009.10
2022-08-14T04:47:25.965Z,1009.06
2022-08-14T04:48:39.345Z,1009.10
2022-08-14T04:49:25.970Z,1009.04
2022-08-14T04:50:44.018Z,1009.06
2022-08-14T04:51:25.944Z,1009.06
2022-08-14T04:52:25.372Z,1009.06
2022-08-14T04:53:26.468Z,1009.05
2022-08-14T04:54:25.921Z,1009.04
2022-08-14T04:55:24.901Z,1009.03
2022-08-14T04:56:31.712Z,1009.03
2022-08-14T04:57:25.874Z,1009.05
2022-08-14T04:58:32.580Z,1009.03
2022-08-14T04:59:25.879Z,1008.99
2022-08-14T05:00:24.889Z,1008.97
2022-08-14T05:01:24.886Z,1008.99
2022-08-14T05:02:24.838Z,1008.99
2022-08-14T05:03:25.373Z,1009.00
2022-08-14T05:04:24.856Z,1008.98
2022-08-14T05:05:24.799Z,1008.95
2022-08-14T05:06:37.636Z,1008.95
2022-08-14T05:07:54.086Z,1008.97
2022-08-14T05:08:32.182Z,1008.92
2022-08-14T05:09:28.627Z,1008.90
2022-08-14T05:10:24.848Z,1008.94
2022-08-14T05:11:24.761Z,1008.93
2022-08-14T05:13:11.257Z,1008.91
2022-08-14T05:13:30.154Z,1008.92
2022-08-14T05:14:46.056Z,1008.93
2022-08-14T05:15:25.700Z,1008.89
2022-08-14T05:16:24.677Z,1008.87
2022-08-14T05:17:24.681Z,1008.81
2022-08-14T05:19:17.269Z,1008.80
2022-08-14T05:19:28.942Z,1008.79
2022-08-14T05:21:10.897Z,1008.80
2022-08-14T05:22:00.352Z,1008.77
2022-08-14T05:22:27.224Z,1008.78
2022-08-14T05:23:24.619Z,1008.75
2022-08-14T05:24:24.617Z,1008.78
2022-08-14T05:25:24.577Z,1008.78
2022-08-14T05:26:25.560Z,1008.77
2022-08-14T05:27:24.553Z,1008.75
2022-08-14T05:28:24.560Z,1008.80
2022-08-14T05:29:24.558Z,1008.74
2022-08-14T05:30:24.521Z,1008.76
2022-08-14T05:31:24.507Z,1008.74
2022-08-14T05:32:27.594Z,1008.73
2022-08-14T05:33:24.517Z,1008.73
2022-08-14T05:34:28.880Z,1008.75
2022-08-14T05:35:25.482Z,1008.74
2022-08-14T05:36:24.469Z,1008.76
2022-08-14T05:37:24.457Z,1008.75
2022-08-14T05:38:31.176Z,1008.78
2022-08-14T05:39:25.487Z,1008.75
2022-08-14T05:40:24.397Z,1008.75
2022-08-14T05:41:51.037Z,1008.73
2022-08-14T05:42:26.858Z,1008.72
2022-08-14T05:43:24.391Z,1008.71
2022-08-14T05:44:29.576Z,1008.70
2022-08-14T05:45:25.379Z,1008.66
2022-08-14T05:46:24.370Z,1008.67
2022-08-14T05:47:24.378Z,1008.62
2022-08-14T05:48:33.457Z,1008.63
2022-08-14T05:49:26.146Z,1008.65
2022-08-14T05:54:27.023Z,1008.60
2022-08-14T05:55:23.626Z,1008.61
2022-08-14T05:56:23.613Z,1008.63
2022-08-14T05:57:23.604Z,1008.60
2022-08-14T05:58:23.574Z,1008.64
2022-08-14T05:59:36.742Z,1008.62
2022-08-14T06:00:29.870Z,1008.64
2022-08-14T06:01:24.595Z,1008.66
2022-08-14T06:02:24.557Z,1008.68
2022-08-14T06:03:23.523Z,1008.66
2022-08-14T06:04:23.535Z,1008.64
2022-08-14T06:05:23.539Z,1008.63
2022-08-14T06:06:24.528Z,1008.63
2022-08-14T06:07:23.485Z,1008.60
2022-08-14T06:08:35.776Z,1008.62
2022-08-14T06:09:24.467Z,1008.63
2022-08-14T06:10:23.444Z,1008.66
2022-08-14T06:11:23.967Z,1008.66
2022-08-14T06:12:31.436Z,1008.67
2022-08-14T06:13:24.437Z,1008.68
2022-08-14T06:14:24.406Z,1008.73
2022-08-14T06:15:27.559Z,1008.73
2022-08-14T06:16:24.417Z,1008.71
2022-08-14T06:17:25.879Z,1008.68
2022-08-14T06:18:23.363Z,1008.65
2022-08-14T06:19:23.660Z,1008.68
2022-08-14T06:20:23.347Z,1008.67
2022-08-14T06:21:23.453Z,1008.65
2022-08-14T06:22:23.356Z,1008.60
2022-08-14T06:23:23.322Z,1008.61
2022-08-14T06:24:23.296Z,1008.56
2022-08-14T06:25:23.284Z,1008.58
2022-08-14T06:26:30.411Z,1008.59
2022-08-14T06:27:24.281Z,1008.58
2022-08-14T06:28:27.195Z,1008.59
2022-08-14T06:29:23.254Z,1008.62
2022-08-14T06:30:23.549Z,1008.61
2022-08-14T06:31:23.246Z,1008.59
2022-08-14T06:32:36.536Z,1008.57
2022-08-14T06:33:24.196Z,1008.53
2022-08-14T06:35:03.716Z,1008.51
2022-08-14T06:35:24.172Z,1008.48
2022-08-14T06:36:23.176Z,1008.47
2022-08-14T06:37:23.154Z,1008.44
2022-08-14T06:38:23.364Z,1008.40
2022-08-14T06:39:36.294Z,1008.40
2022-08-14T06:40:26.823Z,1008.37
2022-08-14T06:41:58.331Z,1008.37
2022-08-14T06:42:32.281Z,1008.41
2022-08-14T06:43:28.382Z,1008.40
2022-08-14T06:44:32.562Z,1008.38
2022-08-14T06:45:26.505Z,1008.42
2022-08-14T06:46:34.167Z,1008.42
2022-08-14T06:47:24.056Z,1008.47
2022-08-14T06:48:23.064Z,1008.47
2022-08-14T06:49:23.040Z,1008.52
2022-08-14T06:50:28.165Z,1008.50
2022-08-14T06:51:24.017Z,1008.52
2022-08-14T06:52:23.006Z,1008.53
2022-08-14T06:53:27.864Z,1008.48
2022-08-14T06:54:23.972Z,1008.48
2022-08-14T06:55:26.512Z,1008.43
2022-08-14T06:56:22.952Z,1008.42
2022-08-14T06:57:22.947Z,1008.43
2022-08-14T06:58:24.802Z,1008.43
2022-08-14T06:59:23.947Z,1008.41
2022-08-14T07:00:26.974Z,1008.36
2022-08-14T07:01:27.073Z,1008.38
2022-08-14T07:02:23.892Z,1008.36
2022-08-14T07:03:23.889Z,1008.33
2022-08-14T07:04:24.324Z,1008.36
2022-08-14T07:05:23.483Z,1008.33
2022-08-14T07:06:46.891Z,1008.36
2022-08-14T07:07:23.864Z,1008.34
2022-08-14T07:08:23.836Z,1008.32
2022-08-14T07:09:23.384Z,1008.34
2022-08-14T07:10:24.930Z,1008.34
2022-08-14T07:11:22.801Z,1008.34
2022-08-14T07:12:54.715Z,1008.28
2022-08-14T07:13:23.774Z,1008.29
2022-08-14T07:14:22.775Z,1008.29
2022-08-14T07:15:22.763Z,1008.26
2022-08-14T07:16:22.751Z,1008.25
2022-08-14T07:17:22.730Z,1008.24
2022-08-14T07:18:22.712Z,1008.25
2022-08-14T07:19:22.718Z,1008.26
2022-08-14T07:20:31.022Z,1008.26
2022-08-14T07:21:23.698Z,1008.21
2022-08-14T07:22:22.679Z,1008.20
2022-08-14T07:23:22.955Z,1008.22
2022-08-14T07:24:31.001Z,1008.19
2022-08-14T07:25:32.286Z,1008.19
2022-08-14T07:26:23.641Z,1008.22
2022-08-14T07:27:22.626Z,1008.15
2022-08-14T07:28:22.613Z,1008.15
2022-08-14T07:29:26.092Z,1008.19
2022-08-14T07:30:34.268Z,1008.15
2022-08-14T07:31:23.573Z,1008.13
2022-08-14T07:32:34.110Z,1008.14
2022-08-14T07:33:28.825Z,1008.14
2022-08-14T07:34:36.221Z,1008.14
2022-08-14T07:35:23.627Z,1008.14
2022-08-14T07:36:27.204Z,1008.14
2022-08-14T07:37:23.523Z,1008.14
2022-08-14T07:38:22.540Z,1008.15
2022-08-14T07:39:27.799Z,1008.15
2022-08-14T07:40:27.733Z,1008.16
2022-08-14T07:41:23.631Z,1008.16
2022-08-14T07:42:22.768Z,1008.18
2022-08-14T07:43:23.767Z,1008.10
2022-08-14T07:44:32.456Z,1008.08
2022-08-14T07:45:23.413Z,1008.07
2022-08-14T07:46:28.255Z,1008.05
2022-08-14T07:47:23.390Z,1008.06
2022-08-14T07:48:25.044Z,1008.06
2022-08-14T07:49:24.280Z,1008.05
2022-08-14T07:50:22.376Z,1008.03
2022-08-14T07:51:22.390Z,1008.05
2022-08-14T07:52:30.605Z,1008.02
2022-08-14T07:53:23.522Z,1008.05
2022-08-14T07:54:23.432Z,1008.05
2022-08-14T07:55:23.317Z,1008.05
2022-08-14T07:56:48.238Z,1008.06
2022-08-14T07:57:24.856Z,1008.04
2022-08-14T07:58:34.306Z,1008.04
2022-08-14T07:59:41.320Z,1008.03
2022-08-14T08:00:30.992Z,1008.01
2022-08-14T08:01:23.261Z,1007.97
2022-08-14T08:02:22.256Z,1007.97
2022-08-14T08:03:23.616Z,1007.97
2022-08-14T08:04:24.289Z,1007.97
2022-08-14T08:05:22.206Z,1007.95
2022-08-14T08:06:22.207Z,1007.92
2022-08-14T08:07:22.174Z,1007.91
2022-08-14T08:08:27.279Z,1007.90
2022-08-14T08:09:23.163Z,1007.88
2022-08-14T08:10:31.162Z,1007.89
2022-08-14T08:11:23.155Z,1007.88
2022-08-14T08:12:26.172Z,1007.86
2022-08-14T08:13:24.385Z,1007.84
2022-08-14T08:14:22.125Z,1007.84
2022-08-14T08:15:22.122Z,1007.85
2022-08-14T08:16:22.105Z,1007.81
2022-08-14T08:17:22.063Z,1007.86
2022-08-14T08:18:27.523Z,1007.84
2022-08-14T08:19:23.052Z,1007.83
2022-08-14T08:20:22.057Z,1007.83
2022-08-14T08:21:22.046Z,1007.84
2022-08-14T08:22:23.021Z,1007.84
2022-08-14T08:23:22.018Z,1007.78
2022-08-14T08:24:22.993Z,1007.81
2022-08-14T08:25:21.986Z,1007.84
2022-08-14T08:26:21.982Z,1007.80
2022-08-14T08:27:21.963Z,1007.80
2022-08-14T08:28:25.497Z,1007.78
2022-08-14T08:29:24.953Z,1007.79
2022-08-14T08:30:22.943Z,1007.78
2022-08-14T08:31:21.914Z,1007.77
2022-08-14T08:32:21.940Z,1007.76
2022-08-14T08:33:22.893Z,1007.76
2022-08-14T08:34:23.688Z,1007.74
2022-08-14T08:35:21.887Z,1007.74
2022-08-14T08:36:21.863Z,1007.76
2022-08-14T08:37:21.866Z,1007.74
2022-08-14T08:39:16.368Z,1007.73
2022-08-14T08:39:23.211Z,1007.69
2022-08-14T08:40:21.884Z,1007.68
2022-08-14T08:41:22.826Z,1007.70
2022-08-14T08:42:31.191Z,1007.70
2022-08-14T08:43:22.808Z,1007.69
2022-08-14T08:44:31.853Z,1007.70
2022-08-14T08:45:23.632Z,1007.67
2022-08-14T08:46:23.508Z,1007.68
2022-08-14T08:47:21.766Z,1007.64
2022-08-14T08:48:31.255Z,1007.62
2022-08-14T08:49:22.754Z,1007.64
2022-08-14T08:50:23.091Z,1007.62
2022-08-14T08:51:21.717Z,1007.59
2022-08-14T08:52:25.184Z,1007.61
2022-08-14T08:53:22.673Z,1007.58
2022-08-14T08:54:26.644Z,1007.58
2022-08-14T08:55:22.696Z,1007.57
2022-08-14T08:56:30.238Z,1007.56
2022-08-14T08:57:22.656Z,1007.52
2022-08-14T08:58:25.406Z,1007.48
2022-08-14T08:59:21.621Z,1007.46
2022-08-14T09:00:25.650Z,1007.45
2022-08-14T09:01:21.660Z,1007.42
2022-08-14T09:02:21.595Z,1007.45
2022-08-14T09:03:21.609Z,1007.41
2022-08-14T09:04:21.576Z,1007.39
2022-08-14T09:05:21.561Z,1007.39
2022-08-14T09:06:53.625Z,1007.38
2022-08-14T09:07:22.522Z,1007.40
2022-08-14T09:08:30.511Z,1007.37
2022-08-14T09:09:22.507Z,1007.40
2022-08-14T09:10:22.182Z,1007.40
2022-08-14T09:11:21.643Z,1007.41
2022-08-14T09:12:21.477Z,1007.38
2022-08-14T09:13:21.464Z,1007.37
2022-08-14T09:14:21.476Z,1007.38
2022-08-14T09:15:21.442Z,1007.37
2022-08-14T09:16:21.728Z,1007.37
2022-08-14T09:17:25.881Z,1007.36
2022-08-14T09:18:21.433Z,1007.34
2022-08-14T09:19:21.392Z,1007.32
2022-08-14T09:20:29.482Z,1007.36
2022-08-14T09:21:24.267Z,1007.29
2022-08-14T09:22:34.811Z,1007.32
2022-08-14T09:23:27.373Z,1007.36
2022-08-14T09:24:28.336Z,1007.34
2022-08-14T09:25:58.637Z,1007.27
2022-08-14T09:26:22.348Z,1007.25
2022-08-14T09:27:23.461Z,1007.23
2022-08-14T09:28:21.302Z,1007.26
2022-08-14T09:29:23.044Z,1007.21
2022-08-14T09:30:32.887Z,1007.19
2022-08-14T09:31:22.285Z,1007.20
2022-08-14T09:32:57.860Z,1007.21
2022-08-14T09:33:22.567Z,1007.19
2022-08-14T09:34:27.373Z,1007.14
2022-08-14T09:35:22.232Z,1007.10
2022-08-14T09:36:21.215Z,1007.13
2022-08-14T09:37:21.215Z,1007.14
2022-08-14T09:38:27.174Z,1007.11
2022-08-14T09:39:23.544Z,1007.09
2022-08-14T09:40:21.810Z,1007.14
2022-08-14T09:41:21.183Z,1007.19
2022-08-14T09:42:33.185Z,1007.15
2022-08-14T09:43:22.577Z,1007.10
2022-08-14T09:44:21.271Z,1007.17
2022-08-14T09:45:21.122Z,1007.11
2022-08-14T09:46:25.591Z,1007.16
2022-08-14T09:47:21.114Z,1007.19
2022-08-14T09:48:21.099Z,1007.13
2022-08-14T09:49:22.082Z,1007.08
2022-08-14T09:50:21.060Z,1007.10
2022-08-14T09:51:21.077Z,1007.07
2022-08-14T09:52:33.316Z,1007.07
2022-08-14T09:53:22.050Z,1007.08
2022-08-14T09:54:23.082Z,1007.04
2022-08-14T09:55:21.448Z,1007.01
2022-08-14T09:56:30.592Z,1007.02
2022-08-14T09:57:22.005Z,1007.02
2022-08-14T09:58:23.077Z,1006.96
2022-08-14T09:59:20.988Z,1006.97
2022-08-14T10:00:30.090Z,1006.98
2022-08-14T10:01:21.965Z,1006.96
2022-08-14T10:02:20.964Z,1006.94
2022-08-14T10:03:20.928Z,1006.93
2022-08-14T10:04:33.362Z,1006.93
2022-08-14T10:05:21.925Z,1006.90
2022-08-14T10:06:20.908Z,1006.90
2022-08-14T10:07:20.909Z,1006.90
2022-08-14T10:08:26.322Z,1006.83
2022-08-14T10:09:21.861Z,1006.84
2022-08-14T10:10:23.586Z,1006.86
2022-08-14T10:11:23.204Z,1006.83
2022-08-14T10:12:28.992Z,1006.81
2022-08-14T10:13:21.821Z,1006.82
2022-08-14T10:14:29.446Z,1006.77
2022-08-14T10:15:21.814Z,1006.77
2022-08-14T10:16:21.921Z,1006.69
2022-08-14T10:17:21.798Z,1006.68
2022-08-14T10:18:20.763Z,1006.68
2022-08-14T10:19:20.760Z,1006.72
2022-08-14T10:20:39.744Z,1006.72
2022-08-14T10:21:22.502Z,1006.66
2022-08-14T10:23:15.110Z,1006.61
2022-08-14T10:23:23.115Z,1006.64
2022-08-14T10:24:20.702Z,1006.65
2022-08-14T10:25:22.684Z,1006.62
2022-08-14T10:26:22.608Z,1006.63
2022-08-14T10:27:20.689Z,1006.58
2022-08-14T10:28:57.459Z,1006.58
2022-08-14T10:29:23.525Z,1006.58
2022-08-14T10:30:22.803Z,1006.54
2022-08-14T10:31:25.310Z,1006.54
2022-08-14T10:32:28.560Z,1006.54
2022-08-14T10:33:21.625Z,1006.49
2022-08-14T10:34:20.620Z,1006.53
2022-08-14T10:35:22.539Z,1006.51
2022-08-14T10:36:35.101Z,1006.46
2022-08-14T10:37:23.070Z,1006.47
2022-08-14T10:38:21.584Z,1006.51
2022-08-14T10:39:20.610Z,1006.47
2022-08-14T10:40:37.530Z,1006.50
2022-08-14T10:41:21.531Z,1006.43
2022-08-14T10:42:21.524Z,1006.45
2022-08-14T10:43:22.948Z,1006.48
2022-08-14T10:44:21.618Z,1006.47
2022-08-14T10:45:20.495Z,1006.44
2022-08-14T10:47:37.060Z,1006.45
2022-08-14T10:47:41.429Z,1006.38
2022-08-14T10:48:36.481Z,1006.39
2022-08-14T10:49:21.445Z,1006.39
2022-08-14T10:50:20.472Z,1006.33
2022-08-14T10:51:20.432Z,1006.34
2022-08-14T10:52:21.959Z,1006.35
2022-08-14T10:53:20.417Z,1006.38
2022-08-14T10:54:35.891Z,1006.36
2022-08-14T10:55:21.386Z,1006.32
2022-08-14T10:56:21.861Z,1006.28
2022-08-14T10:57:21.363Z,1006.16
2022-08-14T10:58:20.329Z,1006.24
2022-08-14T10:59:20.333Z,1006.20
2022-08-14T11:00:20.662Z,1006.16
2022-08-14T11:01:20.302Z,1006.17
2022-08-14T11:02:35.889Z,1006.19
2022-08-14T11:03:35.744Z,1006.16
2022-08-14T11:04:25.860Z,1006.11
2022-08-14T11:05:21.298Z,1006.19
2022-08-14T11:06:20.399Z,1006.18
2022-08-14T11:07:21.540Z,1006.16
2022-08-14T11:08:20.230Z,1006.17
2022-08-14T11:09:20.244Z,1006.12
2022-08-14T11:10:20.211Z,1006.16
2022-08-14T11:11:20.237Z,1006.11
2022-08-14T11:12:34.983Z,1006.05
2022-08-14T11:13:21.197Z,1006.03
2022-08-14T11:14:22.836Z,1006.08
2022-08-14T11:15:20.161Z,1006.03
2022-08-14T11:16:20.141Z,1006.09
2022-08-14T11:17:21.691Z,1006.06
2022-08-14T11:18:30.345Z,1006.04
2022-08-14T11:19:21.193Z,1006.09
2022-08-14T11:20:20.106Z,1005.96
2022-08-14T11:21:21.306Z,1006.07
2022-08-14T11:22:56.181Z,1006.08
2022-08-14T11:23:21.085Z,1005.98
2022-08-14T11:24:54.605Z,1006.01
2022-08-14T11:25:21.222Z,1006.05
2022-08-14T11:26:20.031Z,1005.93
2022-08-14T11:27:20.059Z,1005.96
2022-08-14T11:28:20.024Z,1005.93
2022-08-14T11:29:21.036Z,1005.89
2022-08-14T11:30:50.103Z,1005.89
2022-08-14T11:31:22.084Z,1005.90
2022-08-14T11:32:19.961Z,1005.84
2022-08-14T11:33:19.975Z,1005.82
2022-08-14T11:34:32.240Z,1005.84
2022-08-14T11:35:20.944Z,1005.73
2022-08-14T11:36:19.942Z,1005.84
2022-08-14T11:37:24.835Z,1005.82
2022-08-14T11:38:20.901Z,1005.85
2022-08-14T11:39:33.725Z,1005.83
2022-08-14T11:40:28.509Z,1005.80
2022-08-14T11:41:20.888Z,1005.80
2022-08-14T11:42:58.639Z,1005.73
2022-08-14T11:43:22.727Z,1005.77
2022-08-14T11:44:45.642Z,1005.79
2022-08-14T11:45:23.290Z,1005.79
2022-08-14T11:46:30.630Z,1005.77
2022-08-14T11:47:20.802Z,1005.75
2022-08-14T11:49:04.168Z,1005.73
2022-08-14T11:49:22.131Z,1005.74
2022-08-14T11:50:25.001Z,1005.76
2022-08-14T11:51:20.761Z,1005.73
2022-08-14T11:52:21.721Z,1005.71
2022-08-14T11:53:19.764Z,1005.69
2022-08-14T11:54:33.902Z,1005.75
2022-08-14T11:55:25.137Z,1005.73
2022-08-14T11:56:25.664Z,1005.75
2022-08-14T11:57:22.922Z,1005.73
2022-08-14T11:58:23.935Z,1005.70
2022-08-14T11:59:19.708Z,1005.75
2022-08-14T12:00:20.678Z,1005.74
2022-08-14T12:01:20.651Z,1005.68
2022-08-14T12:03:00.416Z,1005.70
2022-08-14T12:03:37.444Z,1005.61
2022-08-14T12:04:32.621Z,1005.64
2022-08-14T12:05:20.678Z,1005.63
2022-08-14T12:06:29.000Z,1005.61
2022-08-14T12:07:20.621Z,1005.60
2022-08-14T12:08:24.595Z,1005.54
2022-08-14T12:09:20.585Z,1005.55